sensor_id;sensor_type;location;lat;lon;timestamp;temperature;humidity
76120;DHT22;64852;48.092;-1.640;2023-11-21T00:00:48;12.50;99.90
76120;DHT22;64852;48.092;-1.640;2023-11-21T00:03:14;13.30;99.90
76120;DHT22;64852;48.092;-1.640;2023-11-21T00:05:42;13.20;99.90
76120;DHT22;64852;48.092;-1.640;2023-11-21T00:08:08;13.00;99.90
76120;DHT22;64852;48.092;-1.640;2023-11-21T00:10:34;13.00;99.90
76120;DHT22;64852;48.092;-1.640;2023-11-21T00:12:59;13.40;99.90
76120;DHT22;64852;48.092;-1.640;2023-11-21T00:15:28;12.60;99.90
76120;DHT22;64852;48.092;-1.640;2023-11-21T00:17:53;13.10;99.90
76120;DHT22;64852;48.092;-1.640;2023-11-21T00:20:18;12.60;99.90
76120;DHT22;64852;48.092;-1.640;2023-11-21T00:22:44;12.60;99.90
76120;DHT22;64852;48.092;-1.640;2023-11-21T00:25:10;12.60;99.90
76120;DHT22;64852;48.092;-1.640;2023-11-21T00:27:35;12.50;99.90
76120;DHT22;64852;48.092;-1.640;2023-11-21T00:30:01;12.70;99.90
76120;DHT22;64852;48.092;-1.640;2023-11-21T00:32:27;13.00;99.90
76120;DHT22;64852;48.092;-1.640;2023-11-21T00:34:52;12.50;99.90
76120;DHT22;64852;48.092;-1.640;2023-11-21T00:37:17;13.30;99.90
76120;DHT22;64852;48.092;-1.640;2023-11-21T00:50:40;12.50;99.90
76120;DHT22;64852;48.092;-1.640;2023-11-21T00:53:06;12.40;99.90
76120;DHT22;64852;48.092;-1.640;2023-11-21T00:55:32;12.50;99.90
76120;DHT22;64852;48.092;-1.640;2023-11-21T00:57:58;13.10;99.90
76120;DHT22;64852;48.092;-1.640;2023-11-21T01:00:23;13.40;99.90
76120;DHT22;64852;48.092;-1.640;2023-11-21T01:02:49;12.30;99.90
76120;DHT22;64852;48.092;-1.640;2023-11-21T01:05:14;12.40;99.90
76120;DHT22;64852;48.092;-1.640;2023-11-21T01:07:40;12.30;99.90
76120;DHT22;64852;48.092;-1.640;2023-11-21T01:10:06;12.30;99.90
76120;DHT22;64852;48.092;-1.640;2023-11-21T01:12:34;12.30;99.90
76120;DHT22;64852;48.092;-1.640;2023-11-21T01:14:59;12.40;99.90
76120;DHT22;64852;48.092;-1.640;2023-11-21T01:17:26;12.10;99.90
76120;DHT22;64852;48.092;-1.640;2023-11-21T01:19:51;12.20;99.90
76120;DHT22;64852;48.092;-1.640;2023-11-21T01:22:17;12.10;99.90
76120;DHT22;64852;48.092;-1.640;2023-11-21T01:24:47;12.20;99.90
76120;DHT22;64852;48.092;-1.640;2023-11-21T01:27:12;13.10;99.90
76120;DHT22;64852;48.092;-1.640;2023-11-21T01:29:38;12.20;99.90
76120;DHT22;64852;48.092;-1.640;2023-11-21T01:32:04;12.60;99.90
76120;DHT22;64852;48.092;-1.640;2023-11-21T01:34:29;12.10;99.90
76120;DHT22;64852;48.092;-1.640;2023-11-21T01:36:56;12.10;99.90
76120;DHT22;64852;48.092;-1.640;2023-11-21T01:39:21;12.70;99.90
76120;DHT22;64852;48.092;-1.640;2023-11-21T01:41:49;12.10;99.90
76120;DHT22;64852;48.092;-1.640;2023-11-21T01:44:15;12.10;99.90
76120;DHT22;64852;48.092;-1.640;2023-11-21T01:46:42;12.50;99.90
76120;DHT22;64852;48.092;-1.640;2023-11-21T01:49:07;12.70;99.90
76120;DHT22;64852;48.092;-1.640;2023-11-21T01:51:35;12.50;99.90
76120;DHT22;64852;48.092;-1.640;2023-11-21T01:54:00;12.10;99.90
76120;DHT22;64852;48.092;-1.640;2023-11-21T01:56:26;12.80;99.90
76120;DHT22;64852;48.092;-1.640;2023-11-21T01:58:52;13.20;99.90
76120;DHT22;64852;48.092;-1.640;2023-11-21T02:01:17;12.10;99.90
76120;DHT22;64852;48.092;-1.640;2023-11-21T02:03:44;12.10;99.90
76120;DHT22;64852;48.092;-1.640;2023-11-21T02:06:09;12.60;99.90
76120;DHT22;64852;48.092;-1.640;2023-11-21T02:08:35;12.10;99.90
76120;DHT22;64852;48.092;-1.640;2023-11-21T02:11:03;13.00;99.90
76120;DHT22;64852;48.092;-1.640;2023-11-21T02:13:28;11.90;99.90
76120;DHT22;64852;48.092;-1.640;2023-11-21T02:15:53;12.50;99.90
76120;DHT22;64852;48.092;-1.640;2023-11-21T02:18:19;11.80;99.90
76120;DHT22;64852;48.092;-1.640;2023-11-21T02:20:45;12.10;99.90
76120;DHT22;64852;48.092;-1.640;2023-11-21T02:23:11;12.60;99.90
76120;DHT22;64852;48.092;-1.640;2023-11-21T02:25:38;11.80;99.90
76120;DHT22;64852;48.092;-1.640;2023-11-21T02:28:03;12.60;99.90
76120;DHT22;64852;48.092;-1.640;2023-11-21T02:30:29;11.70;99.90
76120;DHT22;64852;48.092;-1.640;2023-11-21T02:32:57;12.50;99.90
76120;DHT22;64852;48.092;-1.640;2023-11-21T02:35:22;11.70;99.90
76120;DHT22;64852;48.092;-1.640;2023-11-21T02:37:48;12.00;99.90
76120;DHT22;64852;48.092;-1.640;2023-11-21T02:40:14;12.20;99.90
76120;DHT22;64852;48.092;-1.640;2023-11-21T02:42:43;11.60;99.90
76120;DHT22;64852;48.092;-1.640;2023-11-21T02:45:09;11.60;99.90
76120;DHT22;64852;48.092;-1.640;2023-11-21T02:47:38;11.50;99.90
76120;DHT22;64852;48.092;-1.640;2023-11-21T02:50:03;12.60;99.90
76120;DHT22;64852;48.092;-1.640;2023-11-21T02:52:29;11.60;99.90
76120;DHT22;64852;48.092;-1.640;2023-11-21T02:54:54;12.80;99.90
76120;DHT22;64852;48.092;-1.640;2023-11-21T02:57:20;11.70;99.90
76120;DHT22;64852;48.092;-1.640;2023-11-21T02:59:46;12.30;99.90
76120;DHT22;64852;48.092;-1.640;2023-11-21T03:02:11;11.70;99.90
76120;DHT22;64852;48.092;-1.640;2023-11-21T03:04:36;11.60;99.90
76120;DHT22;64852;48.092;-1.640;2023-11-21T03:07:02;11.70;99.90
76120;DHT22;64852;48.092;-1.640;2023-11-21T03:09:27;12.00;99.90
76120;DHT22;64852;48.092;-1.640;2023-11-21T03:11:53;12.80;99.90
76120;DHT22;64852;48.092;-1.640;2023-11-21T03:14:19;12.10;99.90
76120;DHT22;64852;48.092;-1.640;2023-11-21T03:16:44;11.60;99.90
76120;DHT22;64852;48.092;-1.640;2023-11-21T03:19:10;11.60;99.90
76120;DHT22;64852;48.092;-1.640;2023-11-21T03:21:36;11.60;99.90
76120;DHT22;64852;48.092;-1.640;2023-11-21T03:24:02;11.80;99.90
76120;DHT22;64852;48.092;-1.640;2023-11-21T03:26:27;11.60;99.90
76120;DHT22;64852;48.092;-1.640;2023-11-21T03:28:53;11.70;99.90
76120;DHT22;64852;48.092;-1.640;2023-11-21T03:31:19;11.90;99.90
76120;DHT22;64852;48.092;-1.640;2023-11-21T03:33:45;12.10;99.90
76120;DHT22;64852;48.092;-1.640;2023-11-21T03:36:11;11.70;99.90
76120;DHT22;64852;48.092;-1.640;2023-11-21T03:38:36;11.70;99.90
76120;DHT22;64852;48.092;-1.640;2023-11-21T03:41:02;12.20;99.90
76120;DHT22;64852;48.092;-1.640;2023-11-21T03:43:27;11.60;99.90
76120;DHT22;64852;48.092;-1.640;2023-11-21T03:45:53;11.70;99.90
76120;DHT22;64852;48.092;-1.640;2023-11-21T03:48:18;12.40;99.90
76120;DHT22;64852;48.092;-1.640;2023-11-21T03:50:44;11.70;99.90
76120;DHT22;64852;48.092;-1.640;2023-11-21T03:53:09;11.80;99.90
76120;DHT22;64852;48.092;-1.640;2023-11-21T03:55:35;11.60;99.90
76120;DHT22;64852;48.092;-1.640;2023-11-21T03:58:00;11.70;99.90
76120;DHT22;64852;48.092;-1.640;2023-11-21T04:00:26;12.30;99.90
76120;DHT22;64852;48.092;-1.640;2023-11-21T04:02:52;12.80;99.90
76120;DHT22;64852;48.092;-1.640;2023-11-21T04:05:17;11.50;99.90
76120;DHT22;64852;48.092;-1.640;2023-11-21T04:07:43;12.40;99.90
76120;DHT22;64852;48.092;-1.640;2023-11-21T04:10:08;12.50;99.90
76120;DHT22;64852;48.092;-1.640;2023-11-21T04:12:35;12.50;99.90
76120;DHT22;64852;48.092;-1.640;2023-11-21T04:15:00;12.80;99.90
76120;DHT22;64852;48.092;-1.640;2023-11-21T04:17:26;11.90;99.90
76120;DHT22;64852;48.092;-1.640;2023-11-21T04:19:51;12.30;99.90
76120;DHT22;64852;48.092;-1.640;2023-11-21T04:22:16;11.70;99.90
76120;DHT22;64852;48.092;-1.640;2023-11-21T04:24:42;12.40;99.90
76120;DHT22;64852;48.092;-1.640;2023-11-21T04:27:08;12.20;99.90
76120;DHT22;64852;48.092;-1.640;2023-11-21T04:29:33;12.40;99.90
76120;DHT22;64852;48.092;-1.640;2023-11-21T04:32:00;12.10;99.90
76120;DHT22;64852;48.092;-1.640;2023-11-21T04:34:26;11.80;99.90
76120;DHT22;64852;48.092;-1.640;2023-11-21T04:36:51;11.60;99.90
76120;DHT22;64852;48.092;-1.640;2023-11-21T04:39:17;11.60;99.90
76120;DHT22;64852;48.092;-1.640;2023-11-21T04:41:42;12.80;99.90
76120;DHT22;64852;48.092;-1.640;2023-11-21T04:44:08;11.50;99.90
76120;DHT22;64852;48.092;-1.640;2023-11-21T04:46:33;12.60;99.90
76120;DHT22;64852;48.092;-1.640;2023-11-21T04:48:59;11.60;99.90
76120;DHT22;64852;48.092;-1.640;2023-11-21T04:51:24;11.30;99.90
76120;DHT22;64852;48.092;-1.640;2023-11-21T04:53:50;11.80;99.90
76120;DHT22;64852;48.092;-1.640;2023-11-21T04:56:15;12.40;99.90
76120;DHT22;64852;48.092;-1.640;2023-11-21T04:58:44;11.90;99.90
76120;DHT22;64852;48.092;-1.640;2023-11-21T05:01:09;11.70;99.90
76120;DHT22;64852;48.092;-1.640;2023-11-21T05:03:35;11.80;99.90
76120;DHT22;64852;48.092;-1.640;2023-11-21T05:06:00;12.80;99.90
76120;DHT22;64852;48.092;-1.640;2023-11-21T05:08:26;12.00;99.90
76120;DHT22;64852;48.092;-1.640;2023-11-21T05:10:52;11.40;99.90
76120;DHT22;64852;48.092;-1.640;2023-11-21T05:13:17;12.30;99.90
76120;DHT22;64852;48.092;-1.640;2023-11-21T05:15:44;12.70;99.90
76120;DHT22;64852;48.092;-1.640;2023-11-21T05:18:09;11.70;99.90
76120;DHT22;64852;48.092;-1.640;2023-11-21T05:20:35;12.40;99.90
76120;DHT22;64852;48.092;-1.640;2023-11-21T05:23:01;11.60;99.90
76120;DHT22;64852;48.092;-1.640;2023-11-21T05:25:26;11.60;99.90
76120;DHT22;64852;48.092;-1.640;2023-11-21T05:27:52;11.60;99.90
76120;DHT22;64852;48.092;-1.640;2023-11-21T05:30:20;12.80;99.90
76120;DHT22;64852;48.092;-1.640;2023-11-21T05:32:46;11.40;99.90
76120;DHT22;64852;48.092;-1.640;2023-11-21T05:35:12;11.50;99.90
76120;DHT22;64852;48.092;-1.640;2023-11-21T05:37:41;11.50;99.90
76120;DHT22;64852;48.092;-1.640;2023-11-21T05:40:06;12.40;99.90
76120;DHT22;64852;48.092;-1.640;2023-11-21T05:42:33;11.40;99.90
76120;DHT22;64852;48.092;-1.640;2023-11-21T05:44:59;12.00;99.90
76120;DHT22;64852;48.092;-1.640;2023-11-21T05:47:24;11.50;99.90
76120;DHT22;64852;48.092;-1.640;2023-11-21T05:49:51;11.80;99.90
76120;DHT22;64852;48.092;-1.640;2023-11-21T05:52:17;12.20;99.90
76120;DHT22;64852;48.092;-1.640;2023-11-21T05:54:43;11.50;99.90
76120;DHT22;64852;48.092;-1.640;2023-11-21T05:57:08;12.80;99.90
76120;DHT22;64852;48.092;-1.640;2023-11-21T05:59:34;11.60;99.90
76120;DHT22;64852;48.092;-1.640;2023-11-21T06:01:59;12.20;99.90
76120;DHT22;64852;48.092;-1.640;2023-11-21T06:04:25;11.70;99.90
76120;DHT22;64852;48.092;-1.640;2023-11-21T06:06:51;12.60;99.90
76120;DHT22;64852;48.092;-1.640;2023-11-21T06:09:18;11.70;99.90
76120;DHT22;64852;48.092;-1.640;2023-11-21T06:11:43;12.50;99.90
76120;DHT22;64852;48.092;-1.640;2023-11-21T06:14:09;12.40;99.90
76120;DHT22;64852;48.092;-1.640;2023-11-21T06:16:35;12.10;99.90
76120;DHT22;64852;48.092;-1.640;2023-11-21T06:19:00;12.20;99.90
76120;DHT22;64852;48.092;-1.640;2023-11-21T06:21:26;11.50;99.90
76120;DHT22;64852;48.092;-1.640;2023-11-21T06:23:52;11.90;99.90
76120;DHT22;64852;48.092;-1.640;2023-11-21T06:26:18;11.60;99.90
76120;DHT22;64852;48.092;-1.640;2023-11-21T06:28:44;11.90;99.90
76120;DHT22;64852;48.092;-1.640;2023-11-21T06:31:09;12.00;99.90
76120;DHT22;64852;48.092;-1.640;2023-11-21T06:33:36;12.40;99.90
76120;DHT22;64852;48.092;-1.640;2023-11-21T06:36:01;12.10;99.90
76120;DHT22;64852;48.092;-1.640;2023-11-21T06:38:31;11.30;99.90
76120;DHT22;64852;48.092;-1.640;2023-11-21T06:40:57;12.10;99.90
76120;DHT22;64852;48.092;-1.640;2023-11-21T06:43:23;12.10;99.90
76120;DHT22;64852;48.092;-1.640;2023-11-21T06:45:49;12.70;99.90
76120;DHT22;64852;48.092;-1.640;2023-11-21T06:48:14;12.40;99.90
76120;DHT22;64852;48.092;-1.640;2023-11-21T06:50:40;12.40;99.90
76120;DHT22;64852;48.092;-1.640;2023-11-21T06:53:05;11.90;99.90
76120;DHT22;64852;48.092;-1.640;2023-11-21T06:55:32;12.40;99.90
76120;DHT22;64852;48.092;-1.640;2023-11-21T06:57:58;11.70;99.90
76120;DHT22;64852;48.092;-1.640;2023-11-21T07:00:25;12.50;99.90
76120;DHT22;64852;48.092;-1.640;2023-11-21T07:02:52;11.30;99.90
76120;DHT22;64852;48.092;-1.640;2023-11-21T07:05:18;11.40;99.90
76120;DHT22;64852;48.092;-1.640;2023-11-21T07:07:46;11.40;99.90
76120;DHT22;64852;48.092;-1.640;2023-11-21T07:10:11;12.10;99.90
76120;DHT22;64852;48.092;-1.640;2023-11-21T07:12:37;12.30;99.90
76120;DHT22;64852;48.092;-1.640;2023-11-21T07:15:03;11.80;99.90
76120;DHT22;64852;48.092;-1.640;2023-11-21T07:17:30;11.30;99.90
76120;DHT22;64852;48.092;-1.640;2023-11-21T07:19:56;12.20;99.90
76120;DHT22;64852;48.092;-1.640;2023-11-21T07:22:22;11.30;99.90
76120;DHT22;64852;48.092;-1.640;2023-11-21T07:24:48;12.10;99.90
76120;DHT22;64852;48.092;-1.640;2023-11-21T07:27:14;12.60;99.90
76120;DHT22;64852;48.092;-1.640;2023-11-21T07:29:40;11.50;99.90
76120;DHT22;64852;48.092;-1.640;2023-11-21T07:32:06;11.50;99.90
76120;DHT22;64852;48.092;-1.640;2023-11-21T07:34:31;12.10;99.90
76120;DHT22;64852;48.092;-1.640;2023-11-21T07:36:56;11.80;99.90
76120;DHT22;64852;48.092;-1.640;2023-11-21T07:39:22;12.00;99.90
76120;DHT22;64852;48.092;-1.640;2023-11-21T07:41:47;12.30;99.90
76120;DHT22;64852;48.092;-1.640;2023-11-21T07:44:16;12.80;99.90
76120;DHT22;64852;48.092;-1.640;2023-11-21T07:46:45;11.90;99.90
76120;DHT22;64852;48.092;-1.640;2023-11-21T07:49:11;12.60;99.90
76120;DHT22;64852;48.092;-1.640;2023-11-21T07:51:37;12.70;99.90
76120;DHT22;64852;48.092;-1.640;2023-11-21T07:54:02;12.50;99.90
76120;DHT22;64852;48.092;-1.640;2023-11-21T07:56:28;11.60;99.90
76120;DHT22;64852;48.092;-1.640;2023-11-21T07:58:53;12.30;99.90
76120;DHT22;64852;48.092;-1.640;2023-11-21T08:01:19;12.40;99.90
76120;DHT22;64852;48.092;-1.640;2023-11-21T08:03:44;12.40;99.90
76120;DHT22;64852;48.092;-1.640;2023-11-21T08:06:10;11.80;99.90
76120;DHT22;64852;48.092;-1.640;2023-11-21T08:08:35;12.20;99.90
76120;DHT22;64852;48.092;-1.640;2023-11-21T08:11:01;11.70;99.90
76120;DHT22;64852;48.092;-1.640;2023-11-21T08:13:29;11.50;99.90
76120;DHT22;64852;48.092;-1.640;2023-11-21T08:15:58;11.50;99.90
76120;DHT22;64852;48.092;-1.640;2023-11-21T08:18:27;11.40;99.90
76120;DHT22;64852;48.092;-1.640;2023-11-21T08:20:54;11.40;99.90
76120;DHT22;64852;48.092;-1.640;2023-11-21T08:23:20;11.60;99.90
76120;DHT22;64852;48.092;-1.640;2023-11-21T08:25:46;10.50;99.90
76120;DHT22;64852;48.092;-1.640;2023-11-21T08:28:12;11.40;99.90
76120;DHT22;64852;48.092;-1.640;2023-11-21T08:30:39;11.70;99.90
76120;DHT22;64852;48.092;-1.640;2023-11-21T08:33:06;12.20;99.90
76120;DHT22;64852;48.092;-1.640;2023-11-21T08:35:34;11.90;99.90
76120;DHT22;64852;48.092;-1.640;2023-11-21T08:37:59;11.50;99.90
76120;DHT22;64852;48.092;-1.640;2023-11-21T08:40:25;11.80;99.90
76120;DHT22;64852;48.092;-1.640;2023-11-21T08:42:50;11.60;99.90
76120;DHT22;64852;48.092;-1.640;2023-11-21T08:45:18;11.60;99.90
76120;DHT22;64852;48.092;-1.640;2023-11-21T08:47:43;12.00;99.90
76120;DHT22;64852;48.092;-1.640;2023-11-21T08:50:09;12.10;99.90
76120;DHT22;64852;48.092;-1.640;2023-11-21T08:52:35;11.80;99.90
76120;DHT22;64852;48.092;-1.640;2023-11-21T08:55:02;11.80;99.90
76120;DHT22;64852;48.092;-1.640;2023-11-21T08:57:35;11.80;99.90
76120;DHT22;64852;48.092;-1.640;2023-11-21T09:00:01;11.90;99.90
76120;DHT22;64852;48.092;-1.640;2023-11-21T09:02:27;12.30;99.90
76120;DHT22;64852;48.092;-1.640;2023-11-21T09:04:52;12.60;99.90
76120;DHT22;64852;48.092;-1.640;2023-11-21T09:07:18;11.90;99.90
76120;DHT22;64852;48.092;-1.640;2023-11-21T09:09:48;12.80;99.90
76120;DHT22;64852;48.092;-1.640;2023-11-21T09:12:14;12.80;99.90
76120;DHT22;64852;48.092;-1.640;2023-11-21T09:14:40;11.70;99.90
76120;DHT22;64852;48.092;-1.640;2023-11-21T09:17:05;12.20;99.90
76120;DHT22;64852;48.092;-1.640;2023-11-21T09:19:39;12.00;99.90
76120;DHT22;64852;48.092;-1.640;2023-11-21T09:22:05;11.90;99.90
76120;DHT22;64852;48.092;-1.640;2023-11-21T09:24:31;13.00;99.90
76120;DHT22;64852;48.092;-1.640;2023-11-21T09:26:57;12.90;99.90
76120;DHT22;64852;48.092;-1.640;2023-11-21T09:29:22;12.10;99.90
76120;DHT22;64852;48.092;-1.640;2023-11-21T09:31:48;12.10;99.90
76120;DHT22;64852;48.092;-1.640;2023-11-21T09:34:16;12.30;99.90
76120;DHT22;64852;48.092;-1.640;2023-11-21T09:36:44;12.20;99.90
76120;DHT22;64852;48.092;-1.640;2023-11-21T09:39:10;12.30;99.90
76120;DHT22;64852;48.092;-1.640;2023-11-21T09:41:51;12.40;99.90
76120;DHT22;64852;48.092;-1.640;2023-11-21T09:44:20;12.50;99.90
76120;DHT22;64852;48.092;-1.640;2023-11-21T09:46:48;12.80;99.90
76120;DHT22;64852;48.092;-1.640;2023-11-21T09:49:21;12.70;99.90
76120;DHT22;64852;48.092;-1.640;2023-11-21T09:51:47;12.70;99.90
76120;DHT22;64852;48.092;-1.640;2023-11-21T09:54:14;13.40;99.90
76120;DHT22;64852;48.092;-1.640;2023-11-21T09:56:41;12.80;99.90
76120;DHT22;64852;48.092;-1.640;2023-11-21T09:59:08;13.10;99.90
76120;DHT22;64852;48.092;-1.640;2023-11-21T10:01:36;13.00;99.90
76120;DHT22;64852;48.092;-1.640;2023-11-21T10:04:02;13.10;99.90
76120;DHT22;64852;48.092;-1.640;2023-11-21T10:06:28;13.10;99.90
76120;DHT22;64852;48.092;-1.640;2023-11-21T10:08:55;13.20;99.90
76120;DHT22;64852;48.092;-1.640;2023-11-21T10:11:24;13.20;99.90
76120;DHT22;64852;48.092;-1.640;2023-11-21T10:13:52;13.20;99.90
76120;DHT22;64852;48.092;-1.640;2023-11-21T10:16:19;13.30;99.90
76120;DHT22;64852;48.092;-1.640;2023-11-21T10:18:46;13.20;99.90
76120;DHT22;64852;48.092;-1.640;2023-11-21T10:21:13;13.30;99.90
76120;DHT22;64852;48.092;-1.640;2023-11-21T10:23:39;13.40;99.90
76120;DHT22;64852;48.092;-1.640;2023-11-21T10:26:04;13.40;99.90
76120;DHT22;64852;48.092;-1.640;2023-11-21T10:28:34;13.50;99.90
76120;DHT22;64852;48.092;-1.640;2023-11-21T10:31:02;13.90;99.90
76120;DHT22;64852;48.092;-1.640;2023-11-21T10:33:28;13.80;99.90
76120;DHT22;64852;48.092;-1.640;2023-11-21T10:35:56;13.80;99.90
76120;DHT22;64852;48.092;-1.640;2023-11-21T10:38:22;13.60;99.90
76120;DHT22;64852;48.092;-1.640;2023-11-21T10:40:49;13.60;99.90
76120;DHT22;64852;48.092;-1.640;2023-11-21T10:43:15;14.50;99.90
76120;DHT22;64852;48.092;-1.640;2023-11-21T10:45:41;14.00;99.90
76120;DHT22;64852;48.092;-1.640;2023-11-21T10:48:08;13.80;99.90
76120;DHT22;64852;48.092;-1.640;2023-11-21T10:50:37;13.60;99.90
76120;DHT22;64852;48.092;-1.640;2023-11-21T10:53:05;13.50;99.90
76120;DHT22;64852;48.092;-1.640;2023-11-21T10:55:32;13.40;99.90
76120;DHT22;64852;48.092;-1.640;2023-11-21T10:57:58;13.30;99.90
76120;DHT22;64852;48.092;-1.640;2023-11-21T11:00:24;13.40;99.90
76120;DHT22;64852;48.092;-1.640;2023-11-21T11:02:50;14.10;99.90
76120;DHT22;64852;48.092;-1.640;2023-11-21T11:05:18;13.50;99.90
76120;DHT22;64852;48.092;-1.640;2023-11-21T11:07:44;13.60;99.90
76120;DHT22;64852;48.092;-1.640;2023-11-21T11:10:12;13.60;99.90
76120;DHT22;64852;48.092;-1.640;2023-11-21T11:12:40;13.60;99.90
76120;DHT22;64852;48.092;-1.640;2023-11-21T11:15:12;13.70;99.90
76120;DHT22;64852;48.092;-1.640;2023-11-21T11:17:38;13.80;99.90
76120;DHT22;64852;48.092;-1.640;2023-11-21T11:20:04;13.90;99.90
76120;DHT22;64852;48.092;-1.640;2023-11-21T11:35:14;13.90;99.90
76120;DHT22;64852;48.092;-1.640;2023-11-21T11:37:42;13.80;99.90
76120;DHT22;64852;48.092;-1.640;2023-11-21T11:40:10;13.90;99.90
76120;DHT22;64852;48.092;-1.640;2023-11-21T11:42:36;13.90;99.90
76120;DHT22;64852;48.092;-1.640;2023-11-21T11:45:02;13.90;99.90
76120;DHT22;64852;48.092;-1.640;2023-11-21T11:47:42;14.00;99.90
76120;DHT22;64852;48.092;-1.640;2023-11-21T11:50:11;14.00;99.90
76120;DHT22;64852;48.092;-1.640;2023-11-21T11:52:50;14.00;99.90
76120;DHT22;64852;48.092;-1.640;2023-11-21T11:55:19;14.00;99.90
76120;DHT22;64852;48.092;-1.640;2023-11-21T11:57:52;14.20;99.90
76120;DHT22;64852;48.092;-1.640;2023-11-21T12:02:55;14.20;99.90
76120;DHT22;64852;48.092;-1.640;2023-11-21T12:05:26;14.10;99.90
76120;DHT22;64852;48.092;-1.640;2023-11-21T12:08:01;14.20;99.90
76120;DHT22;64852;48.092;-1.640;2023-11-21T12:10:30;14.20;99.90
76120;DHT22;64852;48.092;-1.640;2023-11-21T12:13:05;14.20;99.90
76120;DHT22;64852;48.092;-1.640;2023-11-21T12:15:36;14.50;99.90
76120;DHT22;64852;48.092;-1.640;2023-11-21T12:18:02;14.60;99.90
76120;DHT22;64852;48.092;-1.640;2023-11-21T12:20:29;14.70;99.90
76120;DHT22;64852;48.092;-1.640;2023-11-21T12:22:57;14.60;99.90
76120;DHT22;64852;48.092;-1.640;2023-11-21T12:25:29;14.60;99.90
76120;DHT22;64852;48.092;-1.640;2023-11-21T12:27:58;14.80;99.90
76120;DHT22;64852;48.092;-1.640;2023-11-21T12:30:26;15.20;99.90
76120;DHT22;64852;48.092;-1.640;2023-11-21T12:32:55;14.80;99.90
76120;DHT22;64852;48.092;-1.640;2023-11-21T12:35:28;14.40;99.90
76120;DHT22;64852;48.092;-1.640;2023-11-21T12:37:55;14.40;99.90
76120;DHT22;64852;48.092;-1.640;2023-11-21T12:40:23;14.40;99.90
76120;DHT22;64852;48.092;-1.640;2023-11-21T12:42:53;14.50;99.90
76120;DHT22;64852;48.092;-1.640;2023-11-21T12:45:24;14.50;99.90
76120;DHT22;64852;48.092;-1.640;2023-11-21T12:48:01;14.50;99.90
76120;DHT22;64852;48.092;-1.640;2023-11-21T12:50:30;14.30;99.90
76120;DHT22;64852;48.092;-1.640;2023-11-21T12:53:00;14.30;99.90
76120;DHT22;64852;48.092;-1.640;2023-11-21T12:55:34;14.80;99.90
76120;DHT22;64852;48.092;-1.640;2023-11-21T12:58:06;14.30;99.90
76120;DHT22;64852;48.092;-1.640;2023-11-21T13:00:37;14.00;99.90
76120;DHT22;64852;48.092;-1.640;2023-11-21T13:03:05;14.20;99.90
76120;DHT22;64852;48.092;-1.640;2023-11-21T13:05:39;14.90;99.90
76120;DHT22;64852;48.092;-1.640;2023-11-21T13:08:06;13.90;99.90
76120;DHT22;64852;48.092;-1.640;2023-11-21T13:10:41;14.00;99.90
76120;DHT22;64852;48.092;-1.640;2023-11-21T13:13:10;14.00;99.90
76120;DHT22;64852;48.092;-1.640;2023-11-21T13:15:48;14.00;99.90
76120;DHT22;64852;48.092;-1.640;2023-11-21T13:18:14;14.60;99.90
76120;DHT22;64852;48.092;-1.640;2023-11-21T13:20:40;13.80;99.90
76120;DHT22;64852;48.092;-1.640;2023-11-21T13:23:10;13.80;99.90
76120;DHT22;64852;48.092;-1.640;2023-11-21T13:25:41;13.80;99.90
76120;DHT22;64852;48.092;-1.640;2023-11-21T13:28:08;13.80;99.90
76120;DHT22;64852;48.092;-1.640;2023-11-21T13:30:35;13.80;99.90
76120;DHT22;64852;48.092;-1.640;2023-11-21T13:33:04;14.00;99.90
76120;DHT22;64852;48.092;-1.640;2023-11-21T13:35:38;14.00;99.90
76120;DHT22;64852;48.092;-1.640;2023-11-21T13:38:08;14.00;99.90
76120;DHT22;64852;48.092;-1.640;2023-11-21T13:40:35;14.10;99.90
76120;DHT22;64852;48.092;-1.640;2023-11-21T13:43:09;14.10;99.90
76120;DHT22;64852;48.092;-1.640;2023-11-21T13:45:38;14.30;99.90
76120;DHT22;64852;48.092;-1.640;2023-11-21T13:48:08;14.10;99.90
76120;DHT22;64852;48.092;-1.640;2023-11-21T13:50:46;14.10;99.90
76120;DHT22;64852;48.092;-1.640;2023-11-21T13:53:23;13.90;99.90
76120;DHT22;64852;48.092;-1.640;2023-11-21T13:55:53;13.80;99.90
76120;DHT22;64852;48.092;-1.640;2023-11-21T13:58:25;13.60;99.90
76120;DHT22;64852;48.092;-1.640;2023-11-21T14:01:07;13.50;99.90
76120;DHT22;64852;48.092;-1.640;2023-11-21T14:03:42;13.70;99.90
76120;DHT22;64852;48.092;-1.640;2023-11-21T14:06:17;13.40;99.90
76120;DHT22;64852;48.092;-1.640;2023-11-21T14:08:50;13.30;99.90
76120;DHT22;64852;48.092;-1.640;2023-11-21T14:11:15;13.40;99.90
76120;DHT22;64852;48.092;-1.640;2023-11-21T14:13:43;13.80;99.90
76120;DHT22;64852;48.092;-1.640;2023-11-21T14:16:13;13.60;99.90
76120;DHT22;64852;48.092;-1.640;2023-11-21T14:18:39;13.40;99.90
76120;DHT22;64852;48.092;-1.640;2023-11-21T14:21:18;13.80;99.90
76120;DHT22;64852;48.092;-1.640;2023-11-21T14:23:43;13.60;99.90
76120;DHT22;64852;48.092;-1.640;2023-11-21T14:26:11;13.70;99.90
76120;DHT22;64852;48.092;-1.640;2023-11-21T14:28:43;13.50;99.90
76120;DHT22;64852;48.092;-1.640;2023-11-21T14:31:08;13.70;99.90
76120;DHT22;64852;48.092;-1.640;2023-11-21T14:33:40;13.70;99.90
76120;DHT22;64852;48.092;-1.640;2023-11-21T14:36:07;13.70;99.90
76120;DHT22;64852;48.092;-1.640;2023-11-21T14:38:38;13.70;99.90
76120;DHT22;64852;48.092;-1.640;2023-11-21T14:41:05;13.60;99.90
76120;DHT22;64852;48.092;-1.640;2023-11-21T14:43:34;13.90;99.90
76120;DHT22;64852;48.092;-1.640;2023-11-21T14:46:01;13.90;99.90
76120;DHT22;64852;48.092;-1.640;2023-11-21T14:48:28;14.00;99.90
76120;DHT22;64852;48.092;-1.640;2023-11-21T14:51:08;14.00;99.90
76120;DHT22;64852;48.092;-1.640;2023-11-21T14:53:59;14.00;99.90
76120;DHT22;64852;48.092;-1.640;2023-11-21T14:56:32;14.10;99.90
76120;DHT22;64852;48.092;-1.640;2023-11-21T14:59:00;14.00;99.90
76120;DHT22;64852;48.092;-1.640;2023-11-21T15:01:38;14.00;99.90
76120;DHT22;64852;48.092;-1.640;2023-11-21T15:04:21;13.80;99.90
76120;DHT22;64852;48.092;-1.640;2023-11-21T15:07:04;13.80;99.90
76120;DHT22;64852;48.092;-1.640;2023-11-21T15:09:30;13.80;99.90
76120;DHT22;64852;48.092;-1.640;2023-11-21T15:12:07;13.60;99.90
76120;DHT22;64852;48.092;-1.640;2023-11-21T15:14:47;13.50;99.90
76120;DHT22;64852;48.092;-1.640;2023-11-21T15:17:15;13.90;99.90
76120;DHT22;64852;48.092;-1.640;2023-11-21T15:19:48;13.50;99.90
76120;DHT22;64852;48.092;-1.640;2023-11-21T15:22:15;13.50;99.90
76120;DHT22;64852;48.092;-1.640;2023-11-21T15:24:42;13.50;99.90
76120;DHT22;64852;48.092;-1.640;2023-11-21T15:27:10;13.40;99.90
76120;DHT22;64852;48.092;-1.640;2023-11-21T15:29:37;13.30;99.90
76120;DHT22;64852;48.092;-1.640;2023-11-21T15:32:04;13.20;99.90
76120;DHT22;64852;48.092;-1.640;2023-11-21T15:34:31;13.20;99.90
76120;DHT22;64852;48.092;-1.640;2023-11-21T15:36:58;13.70;99.90
76120;DHT22;64852;48.092;-1.640;2023-11-21T15:39:23;13.20;99.90
76120;DHT22;64852;48.092;-1.640;2023-11-21T15:41:54;14.00;99.90